sensor_id;sensor_type;location;lat;lon;timestamp;P1;durP1;ratioP1;P2;durP2;ratioP2
35803;SDS011;21924;51.934;7.414;2023-08-12T00:03:00;20.83;;;11.02;;
35803;SDS011;21924;51.934;7.414;2023-08-12T00:05:45;24.23;;;10.48;;
35803;SDS011;21924;51.934;7.414;2023-08-12T00:08:29;19.90;;;11.18;;
35803;SDS011;21924;51.934;7.414;2023-08-12T00:11:14;29.23;;;10.98;;
35803;SDS011;21924;51.934;7.414;2023-08-12T00:13:58;22.08;;;11.88;;
35803;SDS011;21924;51.934;7.414;2023-08-12T00:16:43;21.05;;;11.82;;
35803;SDS011;21924;51.934;7.414;2023-08-12T00:19:27;22.13;;;11.90;;
35803;SDS011;21924;51.934;7.414;2023-08-12T00:22:19;19.70;;;10.70;;
35803;SDS011;21924;51.934;7.414;2023-08-12T00:25:03;18.90;;;10.40;;
35803;SDS011;21924;51.934;7.414;2023-08-12T00:27:48;23.73;;;10.75;;
35803;SDS011;21924;51.934;7.414;2023-08-12T00:30:32;16.48;;;9.80;;
35803;SDS011;21924;51.934;7.414;2023-08-12T00:33:24;17.90;;;10.57;;
35803;SDS011;21924;51.934;7.414;2023-08-12T00:36:09;20.65;;;11.10;;
35803;SDS011;21924;51.934;7.414;2023-08-12T00:38:54;16.15;;;10.20;;
35803;SDS011;21924;51.934;7.414;2023-08-12T00:41:38;17.42;;;9.68;;
35803;SDS011;21924;51.934;7.414;2023-08-12T00:44:22;14.45;;;8.38;;
35803;SDS011;21924;51.934;7.414;2023-08-12T00:47:08;17.67;;;9.15;;
35803;SDS011;21924;51.934;7.414;2023-08-12T00:49:53;16.38;;;8.30;;
35803;SDS011;21924;51.934;7.414;2023-08-12T00:52:40;15.30;;;8.38;;
35803;SDS011;21924;51.934;7.414;2023-08-12T00:55:25;15.93;;;8.98;;
35803;SDS011;21924;51.934;7.414;2023-08-12T00:58:10;16.85;;;9.27;;
35803;SDS011;21924;51.934;7.414;2023-08-12T01:00:55;13.13;;;9.10;;
35803;SDS011;21924;51.934;7.414;2023-08-12T01:06:24;13.55;;;8.77;;
35803;SDS011;21924;51.934;7.414;2023-08-12T01:09:09;15.75;;;8.82;;
35803;SDS011;21924;51.934;7.414;2023-08-12T01:11:59;17.25;;;9.43;;
35803;SDS011;21924;51.934;7.414;2023-08-12T01:14:59;14.20;;;9.30;;
35803;SDS011;21924;51.934;7.414;2023-08-12T01:17:57;15.43;;;9.80;;
35803;SDS011;21924;51.934;7.414;2023-08-12T01:20:45;17.02;;;9.15;;
35803;SDS011;21924;51.934;7.414;2023-08-12T01:27:13;17.35;;;9.73;;
35803;SDS011;21924;51.934;7.414;2023-08-12T01:30:01;19.13;;;9.88;;
35803;SDS011;21924;51.934;7.414;2023-08-12T01:33:05;18.85;;;10.57;;
35803;SDS011;21924;51.934;7.414;2023-08-12T01:36:18;17.80;;;9.50;;
35803;SDS011;21924;51.934;7.414;2023-08-12T01:39:04;17.02;;;10.05;;
35803;SDS011;21924;51.934;7.414;2023-08-12T01:41:51;14.25;;;9.40;;
35803;SDS011;21924;51.934;7.414;2023-08-12T01:44:37;18.10;;;9.27;;
35803;SDS011;21924;51.934;7.414;2023-08-12T01:47:21;16.00;;;9.57;;
35803;SDS011;21924;51.934;7.414;2023-08-12T01:50:05;16.27;;;9.95;;
35803;SDS011;21924;51.934;7.414;2023-08-12T01:52:50;21.02;;;9.10;;
35803;SDS011;21924;51.934;7.414;2023-08-12T01:55:34;17.63;;;10.55;;
35803;SDS011;21924;51.934;7.414;2023-08-12T01:58:19;17.63;;;9.90;;
35803;SDS011;21924;51.934;7.414;2023-08-12T02:01:03;14.55;;;9.48;;
35803;SDS011;21924;51.934;7.414;2023-08-12T02:03:49;16.45;;;10.10;;
35803;SDS011;21924;51.934;7.414;2023-08-12T02:06:33;19.27;;;11.60;;
35803;SDS011;21924;51.934;7.414;2023-08-12T02:09:17;18.55;;;10.25;;
35803;SDS011;21924;51.934;7.414;2023-08-12T02:12:03;21.50;;;11.43;;
35803;SDS011;21924;51.934;7.414;2023-08-12T02:17:31;16.38;;;10.52;;
35803;SDS011;21924;51.934;7.414;2023-08-12T02:20:17;19.13;;;9.70;;
35803;SDS011;21924;51.934;7.414;2023-08-12T02:23:02;17.27;;;11.07;;
35803;SDS011;21924;51.934;7.414;2023-08-12T02:25:47;18.02;;;10.32;;
35803;SDS011;21924;51.934;7.414;2023-08-12T02:28:31;19.52;;;10.60;;
35803;SDS011;21924;51.934;7.414;2023-08-12T02:31:15;16.35;;;10.65;;
35803;SDS011;21924;51.934;7.414;2023-08-12T02:33:59;20.65;;;11.20;;
35803;SDS011;21924;51.934;7.414;2023-08-12T02:36:44;19.58;;;10.25;;
35803;SDS011;21924;51.934;7.414;2023-08-12T02:39:28;25.08;;;11.93;;
35803;SDS011;21924;51.934;7.414;2023-08-12T02:42:12;18.92;;;10.95;;
35803;SDS011;21924;51.934;7.414;2023-08-12T02:44:56;20.60;;;11.80;;
35803;SDS011;21924;51.934;7.414;2023-08-12T02:47:42;19.38;;;11.15;;
35803;SDS011;21924;51.934;7.414;2023-08-12T02:50:26;21.20;;;11.93;;
35803;SDS011;21924;51.934;7.414;2023-08-12T02:53:12;21.25;;;12.63;;
35803;SDS011;21924;51.934;7.414;2023-08-12T02:55:56;22.25;;;12.50;;
35803;SDS011;21924;51.934;7.414;2023-08-12T02:58:40;26.45;;;13.18;;
35803;SDS011;21924;51.934;7.414;2023-08-12T03:01:24;17.70;;;12.02;;
35803;SDS011;21924;51.934;7.414;2023-08-12T03:04:09;25.70;;;14.80;;
35803;SDS011;21924;51.934;7.414;2023-08-12T03:06:53;25.67;;;14.18;;
35803;SDS011;21924;51.934;7.414;2023-08-12T03:09:39;21.88;;;12.57;;
35803;SDS011;21924;51.934;7.414;2023-08-12T03:12:23;24.25;;;13.98;;
35803;SDS011;21924;51.934;7.414;2023-08-12T03:15:08;22.95;;;13.63;;
35803;SDS011;21924;51.934;7.414;2023-08-12T03:17:52;25.60;;;14.00;;
35803;SDS011;21924;51.934;7.414;2023-08-12T03:20:38;21.38;;;12.68;;
35803;SDS011;21924;51.934;7.414;2023-08-12T03:23:24;25.00;;;13.23;;
35803;SDS011;21924;51.934;7.414;2023-08-12T03:26:09;21.95;;;12.57;;
35803;SDS011;21924;51.934;7.414;2023-08-12T03:28:53;24.40;;;13.60;;
35803;SDS011;21924;51.934;7.414;2023-08-12T03:31:37;25.58;;;13.43;;
35803;SDS011;21924;51.934;7.414;2023-08-12T03:34:22;22.88;;;13.63;;
35803;SDS011;21924;51.934;7.414;2023-08-12T03:37:07;20.05;;;13.23;;
35803;SDS011;21924;51.934;7.414;2023-08-12T03:39:51;21.95;;;13.85;;
35803;SDS011;21924;51.934;7.414;2023-08-12T03:42:37;28.67;;;15.07;;
35803;SDS011;21924;51.934;7.414;2023-08-12T03:45:22;28.25;;;13.30;;
35803;SDS011;21924;51.934;7.414;2023-08-12T03:48:06;23.45;;;13.68;;
35803;SDS011;21924;51.934;7.414;2023-08-12T03:50:50;27.08;;;14.85;;
35803;SDS011;21924;51.934;7.414;2023-08-12T03:53:36;34.35;;;15.10;;
35803;SDS011;21924;51.934;7.414;2023-08-12T03:56:21;27.17;;;15.17;;
35803;SDS011;21924;51.934;7.414;2023-08-12T03:59:05;27.38;;;14.95;;
35803;SDS011;21924;51.934;7.414;2023-08-12T04:01:50;25.27;;;15.68;;
35803;SDS011;21924;51.934;7.414;2023-08-12T04:04:35;28.08;;;15.35;;
35803;SDS011;21924;51.934;7.414;2023-08-12T04:07:20;33.15;;;16.65;;
35803;SDS011;21924;51.934;7.414;2023-08-12T04:10:04;26.45;;;15.45;;
35803;SDS011;21924;51.934;7.414;2023-08-12T04:12:50;27.73;;;15.82;;
35803;SDS011;21924;51.934;7.414;2023-08-12T04:15:34;30.40;;;16.83;;
35803;SDS011;21924;51.934;7.414;2023-08-12T04:18:18;25.63;;;15.30;;
35803;SDS011;21924;51.934;7.414;2023-08-12T04:21:03;31.40;;;16.83;;
35803;SDS011;21924;51.934;7.414;2023-08-12T04:23:48;29.00;;;16.98;;
35803;SDS011;21924;51.934;7.414;2023-08-12T04:26:34;25.65;;;15.68;;
35803;SDS011;21924;51.934;7.414;2023-08-12T04:29:19;28.00;;;16.30;;
35803;SDS011;21924;51.934;7.414;2023-08-12T04:32:04;33.65;;;15.38;;
35803;SDS011;21924;51.934;7.414;2023-08-12T04:34:49;31.73;;;17.15;;
35803;SDS011;21924;51.934;7.414;2023-08-12T04:37:33;29.05;;;16.10;;
35803;SDS011;21924;51.934;7.414;2023-08-12T04:40:18;37.42;;;17.25;;
35803;SDS011;21924;51.934;7.414;2023-08-12T04:43:02;40.33;;;18.58;;
35803;SDS011;21924;51.934;7.414;2023-08-12T04:45:47;32.50;;;18.55;;
35803;SDS011;21924;51.934;7.414;2023-08-12T04:48:31;32.50;;;18.27;;
35803;SDS011;21924;51.934;7.414;2023-08-12T04:51:17;33.03;;;18.58;;
35803;SDS011;21924;51.934;7.414;2023-08-12T04:54:01;35.15;;;19.05;;
35803;SDS011;21924;51.934;7.414;2023-08-12T04:56:46;38.13;;;20.63;;
35803;SDS011;21924;51.934;7.414;2023-08-12T04:59:31;40.35;;;21.38;;
35803;SDS011;21924;51.934;7.414;2023-08-12T05:02:16;51.78;;;23.40;;
35803;SDS011;21924;51.934;7.414;2023-08-12T05:05:02;39.47;;;21.67;;
35803;SDS011;21924;51.934;7.414;2023-08-12T05:07:46;47.33;;;23.38;;
35803;SDS011;21924;51.934;7.414;2023-08-12T05:10:34;46.08;;;23.10;;
35803;SDS011;21924;51.934;7.414;2023-08-12T05:13:20;65.93;;;24.92;;
35803;SDS011;21924;51.934;7.414;2023-08-12T05:16:04;50.30;;;25.73;;
35803;SDS011;21924;51.934;7.414;2023-08-12T05:18:48;71.60;;;27.60;;
35803;SDS011;21924;51.934;7.414;2023-08-12T05:21:33;55.53;;;25.23;;
35803;SDS011;21924;51.934;7.414;2023-08-12T05:24:17;51.83;;;25.00;;
35803;SDS011;21924;51.934;7.414;2023-08-12T05:27:01;55.70;;;26.48;;
35803;SDS011;21924;51.934;7.414;2023-08-12T05:29:47;44.92;;;24.30;;
35803;SDS011;21924;51.934;7.414;2023-08-12T05:32:31;50.17;;;23.95;;
35803;SDS011;21924;51.934;7.414;2023-08-12T05:35:15;52.08;;;24.98;;
35803;SDS011;21924;51.934;7.414;2023-08-12T05:38:00;53.50;;;26.50;;
35803;SDS011;21924;51.934;7.414;2023-08-12T05:40:45;48.30;;;25.20;;
35803;SDS011;21924;51.934;7.414;2023-08-12T05:43:29;57.35;;;26.10;;
35803;SDS011;21924;51.934;7.414;2023-08-12T05:46:13;49.83;;;24.90;;
35803;SDS011;21924;51.934;7.414;2023-08-12T05:48:57;49.63;;;26.08;;
35803;SDS011;21924;51.934;7.414;2023-08-12T05:51:42;56.53;;;26.85;;
35803;SDS011;21924;51.934;7.414;2023-08-12T05:54:26;48.15;;;23.85;;
35803;SDS011;21924;51.934;7.414;2023-08-12T05:57:11;52.47;;;26.75;;
35803;SDS011;21924;51.934;7.414;2023-08-12T05:59:55;56.97;;;24.50;;
35803;SDS011;21924;51.934;7.414;2023-08-12T06:02:40;46.92;;;24.23;;
35803;SDS011;21924;51.934;7.414;2023-08-12T06:05:25;48.45;;;23.25;;
35803;SDS011;21924;51.934;7.414;2023-08-12T06:08:10;54.95;;;25.83;;
35803;SDS011;21924;51.934;7.414;2023-08-12T06:10:54;49.50;;;24.88;;
35803;SDS011;21924;51.934;7.414;2023-08-12T06:13:38;48.78;;;24.08;;
35803;SDS011;21924;51.934;7.414;2023-08-12T06:16:22;40.08;;;22.17;;
35803;SDS011;21924;51.934;7.414;2023-08-12T06:19:07;46.25;;;23.92;;
35803;SDS011;21924;51.934;7.414;2023-08-12T06:21:51;44.08;;;23.45;;
35803;SDS011;21924;51.934;7.414;2023-08-12T06:24:35;41.58;;;23.13;;
35803;SDS011;21924;51.934;7.414;2023-08-12T06:27:19;39.38;;;21.88;;
35803;SDS011;21924;51.934;7.414;2023-08-12T06:30:04;41.17;;;22.42;;
35803;SDS011;21924;51.934;7.414;2023-08-12T06:32:50;40.75;;;22.58;;
35803;SDS011;21924;51.934;7.414;2023-08-12T06:35:34;39.55;;;21.08;;
35803;SDS011;21924;51.934;7.414;2023-08-12T06:38:18;37.58;;;20.65;;
35803;SDS011;21924;51.934;7.414;2023-08-12T06:41:02;39.45;;;20.92;;
35803;SDS011;21924;51.934;7.414;2023-08-12T06:43:47;36.38;;;20.67;;
35803;SDS011;21924;51.934;7.414;2023-08-12T06:46:31;39.70;;;23.15;;
35803;SDS011;21924;51.934;7.414;2023-08-12T06:49:15;42.75;;;22.13;;
35803;SDS011;21924;51.934;7.414;2023-08-12T06:52:00;36.30;;;22.40;;
35803;SDS011;21924;51.934;7.414;2023-08-12T06:54:44;39.72;;;21.30;;
35803;SDS011;21924;51.934;7.414;2023-08-12T06:57:29;42.10;;;21.60;;
35803;SDS011;21924;51.934;7.414;2023-08-12T07:00:13;39.00;;;20.45;;
35803;SDS011;21924;51.934;7.414;2023-08-12T07:02:58;44.38;;;21.85;;
35803;SDS011;21924;51.934;7.414;2023-08-12T07:05:42;37.60;;;21.77;;
35803;SDS011;21924;51.934;7.414;2023-08-12T07:08:26;45.55;;;20.63;;
35803;SDS011;21924;51.934;7.414;2023-08-12T07:11:10;41.47;;;20.33;;
35803;SDS011;21924;51.934;7.414;2023-08-12T07:13:55;39.22;;;20.75;;
35803;SDS011;21924;51.934;7.414;2023-08-12T07:16:39;38.25;;;19.85;;
35803;SDS011;21924;51.934;7.414;2023-08-12T07:19:23;43.20;;;21.77;;
35803;SDS011;21924;51.934;7.414;2023-08-12T07:22:07;43.70;;;21.92;;
35803;SDS011;21924;51.934;7.414;2023-08-12T07:24:52;38.67;;;21.55;;
35803;SDS011;21924;51.934;7.414;2023-08-12T07:27:36;42.83;;;22.63;;
35803;SDS011;21924;51.934;7.414;2023-08-12T07:30:20;38.58;;;22.08;;
35803;SDS011;21924;51.934;7.414;2023-08-12T07:33:05;39.88;;;22.30;;
35803;SDS011;21924;51.934;7.414;2023-08-12T07:35:49;43.90;;;23.27;;
35803;SDS011;21924;51.934;7.414;2023-08-12T07:38:35;44.22;;;23.33;;
35803;SDS011;21924;51.934;7.414;2023-08-12T07:41:19;47.78;;;24.48;;
35803;SDS011;21924;51.934;7.414;2023-08-12T07:44:04;41.50;;;21.55;;
35803;SDS011;21924;51.934;7.414;2023-08-12T07:46:48;39.97;;;21.50;;
35803;SDS011;21924;51.934;7.414;2023-08-12T07:49:32;38.28;;;20.38;;
35803;SDS011;21924;51.934;7.414;2023-08-12T07:52:17;32.67;;;19.38;;
35803;SDS011;21924;51.934;7.414;2023-08-12T07:55:02;38.55;;;21.13;;
35803;SDS011;21924;51.934;7.414;2023-08-12T07:57:46;41.63;;;21.10;;
35803;SDS011;21924;51.934;7.414;2023-08-12T08:00:32;44.78;;;21.42;;
35803;SDS011;21924;51.934;7.414;2023-08-12T08:03:16;38.53;;;20.88;;
35803;SDS011;21924;51.934;7.414;2023-08-12T08:10:17;37.55;;;20.13;;
35803;SDS011;21924;51.934;7.414;2023-08-12T08:13:57;35.08;;;19.90;;
35803;SDS011;21924;51.934;7.414;2023-08-12T08:17:02;32.22;;;18.45;;
35803;SDS011;21924;51.934;7.414;2023-08-12T08:19:47;40.60;;;21.20;;
35803;SDS011;21924;51.934;7.414;2023-08-12T08:22:31;36.42;;;18.23;;
35803;SDS011;21924;51.934;7.414;2023-08-12T08:25:16;30.98;;;17.90;;
35803;SDS011;21924;51.934;7.414;2023-08-12T08:28:00;32.95;;;18.48;;
35803;SDS011;21924;51.934;7.414;2023-08-12T08:30:44;32.47;;;17.42;;
35803;SDS011;21924;51.934;7.414;2023-08-12T08:33:30;27.13;;;17.35;;
35803;SDS011;21924;51.934;7.414;2023-08-12T08:36:14;33.83;;;17.90;;
35803;SDS011;21924;51.934;7.414;2023-08-12T08:38:58;31.10;;;15.07;;
35803;SDS011;21924;51.934;7.414;2023-08-12T08:41:43;22.35;;;14.65;;
35803;SDS011;21924;51.934;7.414;2023-08-12T08:44:31;19.25;;;12.68;;
35803;SDS011;21924;51.934;7.414;2023-08-12T08:47:17;26.30;;;14.32;;
35803;SDS011;21924;51.934;7.414;2023-08-12T08:50:06;18.83;;;10.70;;
35803;SDS011;21924;51.934;7.414;2023-08-12T08:52:52;21.88;;;9.02;;
35803;SDS011;21924;51.934;7.414;2023-08-12T08:55:36;13.95;;;9.50;;
35803;SDS011;21924;51.934;7.414;2023-08-12T08:58:21;14.82;;;6.80;;
35803;SDS011;21924;51.934;7.414;2023-08-12T09:01:05;13.52;;;6.03;;
35803;SDS011;21924;51.934;7.414;2023-08-12T09:03:51;10.68;;;6.25;;
35803;SDS011;21924;51.934;7.414;2023-08-12T09:06:39;10.32;;;6.20;;
35803;SDS011;21924;51.934;7.414;2023-08-12T09:09:24;10.50;;;6.40;;
35803;SDS011;21924;51.934;7.414;2023-08-12T09:12:09;12.63;;;7.38;;
35803;SDS011;21924;51.934;7.414;2023-08-12T09:14:59;8.75;;;5.80;;
35803;SDS011;21924;51.934;7.414;2023-08-12T09:17:43;12.73;;;6.63;;
35803;SDS011;21924;51.934;7.414;2023-08-12T09:20:28;9.65;;;5.65;;
35803;SDS011;21924;51.934;7.414;2023-08-12T09:23:12;10.23;;;6.00;;
35803;SDS011;21924;51.934;7.414;2023-08-12T09:25:56;12.60;;;5.95;;
35803;SDS011;21924;51.934;7.414;2023-08-12T09:28:41;11.82;;;6.10;;
35803;SDS011;21924;51.934;7.414;2023-08-12T09:31:27;12.13;;;6.13;;
35803;SDS011;21924;51.934;7.414;2023-08-12T09:34:12;11.90;;;6.20;;
35803;SDS011;21924;51.934;7.414;2023-08-12T09:36:57;11.52;;;5.85;;
35803;SDS011;21924;51.934;7.414;2023-08-12T09:39:41;11.63;;;5.85;;
35803;SDS011;21924;51.934;7.414;2023-08-12T09:42:26;8.75;;;5.85;;
35803;SDS011;21924;51.934;7.414;2023-08-12T09:47:57;9.35;;;5.57;;
35803;SDS011;21924;51.934;7.414;2023-08-12T09:50:42;7.95;;;5.43;;
35803;SDS011;21924;51.934;7.414;2023-08-12T09:53:28;14.23;;;7.15;;
35803;SDS011;21924;51.934;7.414;2023-08-12T09:56:12;14.40;;;5.93;;
35803;SDS011;21924;51.934;7.414;2023-08-12T09:59:22;10.88;;;5.95;;
35803;SDS011;21924;51.934;7.414;2023-08-12T10:02:17;13.23;;;7.38;;
35803;SDS011;21924;51.934;7.414;2023-08-12T10:05:03;11.02;;;6.75;;
35803;SDS011;21924;51.934;7.414;2023-08-12T10:07:48;10.18;;;6.45;;
35803;SDS011;21924;51.934;7.414;2023-08-12T10:10:35;13.98;;;7.05;;
35803;SDS011;21924;51.934;7.414;2023-08-12T10:13:20;10.70;;;6.95;;
35803;SDS011;21924;51.934;7.414;2023-08-12T10:16:06;9.52;;;6.95;;
35803;SDS011;21924;51.934;7.414;2023-08-12T10:18:58;19.73;;;8.18;;
35803;SDS011;21924;51.934;7.414;2023-08-12T10:25:24;9.70;;;6.75;;
35803;SDS011;21924;51.934;7.414;2023-08-12T10:28:46;5.68;;;4.90;;
35803;SDS011;21924;51.934;7.414;2023-08-12T10:31:33;8.30;;;5.97;;
35803;SDS011;21924;51.934;7.414;2023-08-12T10:34:18;6.90;;;5.72;;
35803;SDS011;21924;51.934;7.414;2023-08-12T10:37:07;6.90;;;5.30;;
35803;SDS011;21924;51.934;7.414;2023-08-12T10:39:54;6.68;;;5.00;;
35803;SDS011;21924;51.934;7.414;2023-08-12T10:42:42;7.00;;;5.10;;
35803;SDS011;21924;51.934;7.414;2023-08-12T10:45:40;6.95;;;5.68;;
35803;SDS011;21924;51.934;7.414;2023-08-12T10:48:26;6.93;;;4.95;;
35803;SDS011;21924;51.934;7.414;2023-08-12T10:51:13;6.57;;;4.20;;
35803;SDS011;21924;51.934;7.414;2023-08-12T10:54:09;5.57;;;4.45;;
35803;SDS011;21924;51.934;7.414;2023-08-12T10:57:10;5.30;;;3.83;;
35803;SDS011;21924;51.934;7.414;2023-08-12T10:59:54;5.40;;;4.03;;
35803;SDS011;21924;51.934;7.414;2023-08-12T11:02:43;7.18;;;4.18;;
35803;SDS011;21924;51.934;7.414;2023-08-12T11:05:36;5.25;;;4.10;;
35803;SDS011;21924;51.934;7.414;2023-08-12T11:08:24;7.32;;;4.45;;
35803;SDS011;21924;51.934;7.414;2023-08-12T11:11:18;11.95;;;4.57;;
35803;SDS011;21924;51.934;7.414;2023-08-12T11:14:11;4.40;;;3.45;;
35803;SDS011;21924;51.934;7.414;2023-08-12T11:16:58;4.93;;;4.10;;
35803;SDS011;21924;51.934;7.414;2023-08-12T11:19:42;6.20;;;4.28;;
35803;SDS011;21924;51.934;7.414;2023-08-12T11:22:26;6.57;;;4.82;;
35803;SDS011;21924;51.934;7.414;2023-08-12T11:25:12;7.95;;;4.53;;
35803;SDS011;21924;51.934;7.414;2023-08-12T11:30:43;6.53;;;4.80;;
35803;SDS011;21924;51.934;7.414;2023-08-12T11:33:30;8.15;;;5.05;;
35803;SDS011;21924;51.934;7.414;2023-08-12T11:36:16;8.13;;;5.03;;
35803;SDS011;21924;51.934;7.414;2023-08-12T11:39:01;8.02;;;4.93;;
35803;SDS011;21924;51.934;7.414;2023-08-12T11:41:45;5.87;;;4.13;;
35803;SDS011;21924;51.934;7.414;2023-08-12T11:44:30;6.82;;;4.20;;
35803;SDS011;21924;51.934;7.414;2023-08-12T11:47:14;6.10;;;4.40;;
35803;SDS011;21924;51.934;7.414;2023-08-12T11:50:01;5.60;;;4.53;;
35803;SDS011;21924;51.934;7.414;2023-08-12T11:52:49;4.72;;;4.20;;
35803;SDS011;21924;51.934;7.414;2023-08-12T11:55:34;7.10;;;4.90;;
35803;SDS011;21924;51.934;7.414;2023-08-12T11:58:18;6.45;;;4.80;;
35803;SDS011;21924;51.934;7.414;2023-08-12T12:03:52;6.60;;;5.67;;
35803;SDS011;21924;51.934;7.414;2023-08-12T12:06:36;7.90;;;4.50;;
35803;SDS011;21924;51.934;7.414;2023-08-12T12:09:20;6.00;;;4.60;;
35803;SDS011;21924;51.934;7.414;2023-08-12T12:12:05;6.32;;;4.03;;
35803;SDS011;21924;51.934;7.414;2023-08-12T12:14:50;5.60;;;3.72;;
35803;SDS011;21924;51.934;7.414;2023-08-12T12:17:38;4.97;;;3.63;;
35803;SDS011;21924;51.934;7.414;2023-08-12T12:20:24;3.47;;;3.08;;
35803;SDS011;21924;51.934;7.414;2023-08-12T12:23:10;4.78;;;3.42;;
35803;SDS011;21924;51.934;7.414;2023-08-12T12:26:01;4.47;;;3.35;;
35803;SDS011;21924;51.934;7.414;2023-08-12T12:28:47;3.60;;;2.63;;
35803;SDS011;21924;51.934;7.414;2023-08-12T12:31:32;4.15;;;3.05;;
35803;SDS011;21924;51.934;7.414;2023-08-12T12:34:19;5.47;;;3.67;;
35803;SDS011;21924;51.934;7.414;2023-08-12T12:37:04;8.18;;;2.95;;
35803;SDS011;21924;51.934;7.414;2023-08-12T12:39:48;8.50;;;2.80;;
35803;SDS011;21924;51.934;7.414;2023-08-12T12:42:32;4.20;;;2.90;;
35803;SDS011;21924;51.934;7.414;2023-08-12T12:45:25;7.47;;;2.95;;
35803;SDS011;21924;51.934;7.414;2023-08-12T12:48:12;3.80;;;2.53;;
35803;SDS011;21924;51.934;7.414;2023-08-12T12:50:59;4.05;;;3.30;;
35803;SDS011;21924;51.934;7.414;2023-08-12T12:53:45;3.03;;;2.42;;
35803;SDS011;21924;51.934;7.414;2023-08-12T12:56:32;3.22;;;2.63;;
35803;SDS011;21924;51.934;7.414;2023-08-12T12:59:19;3.13;;;2.55;;
35803;SDS011;21924;51.934;7.414;2023-08-12T13:02:03;3.60;;;2.72;;
35803;SDS011;21924;51.934;7.414;2023-08-12T13:04:48;4.15;;;2.67;;
35803;SDS011;21924;51.934;7.414;2023-08-12T13:07:33;7.07;;;2.70;;
35803;SDS011;21924;51.934;7.414;2023-08-12T13:10:17;4.30;;;2.28;;
35803;SDS011;21924;51.934;7.414;2023-08-12T13:13:02;3.75;;;1.95;;
35803;SDS011;21924;51.934;7.414;2023-08-12T13:15:47;1.75;;;1.65;;
35803;SDS011;21924;51.934;7.414;2023-08-12T13:18:31;1.75;;;1.40;;
35803;SDS011;21924;51.934;7.414;2023-08-12T13:21:18;1.80;;;1.40;;
35803;SDS011;21924;51.934;7.414;2023-08-12T13:24:02;1.00;;;1.00;;
35803;SDS011;21924;51.934;7.414;2023-08-12T13:26:47;0.93;;;0.90;;
35803;SDS011;21924;51.934;7.414;2023-08-12T13:29:31;1.20;;;1.05;;
35803;SDS011;21924;51.934;7.414;2023-08-12T13:32:16;3.65;;;1.02;;
35803;SDS011;21924;51.934;7.414;2023-08-12T13:35:00;1.08;;;0.90;;
35803;SDS011;21924;51.934;7.414;2023-08-12T13:37:45;1.00;;;0.90;;
35803;SDS011;21924;51.934;7.414;2023-08-12T13:40:29;0.95;;;0.85;;
35803;SDS011;21924;51.934;7.414;2023-08-12T13:43:14;9.88;;;1.33;;
35803;SDS011;21924;51.934;7.414;2023-08-12T13:45:59;1.35;;;1.10;;
35803;SDS011;21924;51.934;7.414;2023-08-12T13:48:44;1.55;;;0.90;;
35803;SDS011;21924;51.934;7.414;2023-08-12T13:51:28;1.08;;;0.98;;
35803;SDS011;21924;51.934;7.414;2023-08-12T13:56:59;0.77;;;0.63;;
35803;SDS011;21924;51.934;7.414;2023-08-12T13:59:43;2.22;;;0.88;;
35803;SDS011;21924;51.934;7.414;2023-08-12T14:02:28;2.30;;;1.13;;
35803;SDS011;21924;51.934;7.414;2023-08-12T14:05:12;0.70;;;0.70;;
35803;SDS011;21924;51.934;7.414;2023-08-12T14:07:57;1.00;;;0.90;;
35803;SDS011;21924;51.934;7.414;2023-08-12T14:10:42;1.77;;;0.75;;
35803;SDS011;21924;51.934;7.414;2023-08-12T14:13:26;0.60;;;0.60;;
35803;SDS011;21924;51.934;7.414;2023-08-12T14:16:11;1.40;;;0.90;;
35803;SDS011;21924;51.934;7.414;2023-08-12T14:18:55;0.82;;;0.82;;
35803;SDS011;21924;51.934;7.414;2023-08-12T14:21:40;3.25;;;1.00;;
35803;SDS011;21924;51.934;7.414;2023-08-12T14:24:26;0.80;;;0.80;;
35803;SDS011;21924;51.934;7.414;2023-08-12T14:27:11;3.85;;;1.30;;
35803;SDS011;21924;51.934;7.414;2023-08-12T14:29:56;2.53;;;1.48;;
35803;SDS011;21924;51.934;7.414;2023-08-12T14:32:40;1.10;;;1.00;;
35803;SDS011;21924;51.934;7.414;2023-08-12T14:35:24;2.83;;;1.00;;
35803;SDS011;21924;51.934;7.414;2023-08-12T14:38:08;3.42;;;0.90;;
35803;SDS011;21924;51.934;7.414;2023-08-12T14:40:53;1.55;;;1.15;;
35803;SDS011;21924;51.934;7.414;2023-08-12T14:43:38;4.18;;;1.23;;
35803;SDS011;21924;51.934;7.414;2023-08-12T14:46:22;2.08;;;1.02;;
35803;SDS011;21924;51.934;7.414;2023-08-12T14:49:06;3.63;;;1.52;;
35803;SDS011;21924;51.934;7.414;2023-08-12T14:51:51;1.75;;;1.20;;
35803;SDS011;21924;51.934;7.414;2023-08-12T14:54:35;4.85;;;0.88;;
35803;SDS011;21924;51.934;7.414;2023-08-12T14:57:19;3.85;;;1.00;;
35803;SDS011;21924;51.934;7.414;2023-08-12T15:00:03;2.75;;;1.10;;
35803;SDS011;21924;51.934;7.414;2023-08-12T15:02:50;4.25;;;1.00;;
35803;SDS011;21924;51.934;7.414;2023-08-12T15:05:35;1.65;;;0.80;;
35803;SDS011;21924;51.934;7.414;2023-08-12T15:08:19;2.42;;;0.80;;
35803;SDS011;21924;51.934;7.414;2023-08-12T15:11:03;0.90;;;0.50;;
35803;SDS011;21924;51.934;7.414;2023-08-12T15:13:47;2.03;;;0.55;;
35803;SDS011;21924;51.934;7.414;2023-08-12T15:16:32;3.93;;;0.83;;
35803;SDS011;21924;51.934;7.414;2023-08-12T15:19:16;1.67;;;0.70;;
35803;SDS011;21924;51.934;7.414;2023-08-12T15:22:00;2.37;;;0.60;;
35803;SDS011;21924;51.934;7.414;2023-08-12T15:24:45;1.30;;;0.75;;
35803;SDS011;21924;51.934;7.414;2023-08-12T15:27:30;2.85;;;0.82;;
35803;SDS011;21924;51.934;7.414;2023-08-12T15:30:14;1.00;;;0.80;;
35803;SDS011;21924;51.934;7.414;2023-08-12T15:33:28;2.45;;;1.10;;
35803;SDS011;21924;51.934;7.414;2023-08-12T15:36:13;1.85;;;0.90;;
35803;SDS011;21924;51.934;7.414;2023-08-12T15:38:57;4.93;;;1.20;;
35803;SDS011;21924;51.934;7.414;2023-08-12T15:41:42;4.15;;;1.20;;
35803;SDS011;21924;51.934;7.414;2023-08-12T15:44:27;12.82;;;1.20;;
35803;SDS011;21924;51.934;7.414;2023-08-12T15:47:12;2.15;;;1.20;;
35803;SDS011;21924;51.934;7.414;2023-08-12T15:49:56;3.10;;;1.35;;
35803;SDS011;21924;51.934;7.414;2023-08-12T15:52:40;5.68;;;1.33;;
35803;SDS011;21924;51.934;7.414;2023-08-12T15:55:24;5.38;;;1.33;;
35803;SDS011;21924;51.934;7.414;2023-08-12T15:58:09;4.55;;;1.25;;
35803;SDS011;21924;51.934;7.414;2023-08-12T16:00:53;5.03;;;1.33;;
35803;SDS011;21924;51.934;7.414;2023-08-12T16:03:37;3.15;;;1.33;;
35803;SDS011;21924;51.934;7.414;2023-08-12T16:06:23;5.00;;;1.55;;
35803;SDS011;21924;51.934;7.414;2023-08-12T16:11:53;2.60;;;1.15;;
35803;SDS011;21924;51.934;7.414;2023-08-12T16:14:38;5.57;;;1.77;;
35803;SDS011;21924;51.934;7.414;2023-08-12T16:17:22;6.82;;;1.30;;
35803;SDS011;21924;51.934;7.414;2023-08-12T16:20:06;5.95;;;1.52;;
35803;SDS011;21924;51.934;7.414;2023-08-12T16:22:51;2.53;;;1.20;;
35803;SDS011;21924;51.934;7.414;2023-08-12T16:25:35;7.22;;;1.60;;
35803;SDS011;21924;51.934;7.414;2023-08-12T16:28:19;5.32;;;1.70;;
35803;SDS011;21924;51.934;7.414;2023-08-12T16:31:04;6.65;;;1.60;;
35803;SDS011;21924;51.934;7.414;2023-08-12T16:33:49;8.93;;;1.73;;
35803;SDS011;21924;51.934;7.414;2023-08-12T16:36:32;6.50;;;1.63;;
35803;SDS011;21924;51.934;7.414;2023-08-12T16:39:17;3.28;;;1.50;;
35803;SDS011;21924;51.934;7.414;2023-08-12T16:42:02;4.30;;;1.63;;
35803;SDS011;21924;51.934;7.414;2023-08-12T16:44:46;6.03;;;2.10;;
35803;SDS011;21924;51.934;7.414;2023-08-12T16:47:30;3.72;;;1.35;;
35803;SDS011;21924;51.934;7.414;2023-08-12T16:50:14;6.82;;;1.45;;
35803;SDS011;21924;51.934;7.414;2023-08-12T16:52:58;3.92;;;1.40;;
35803;SDS011;21924;51.934;7.414;2023-08-12T16:55:43;5.57;;;1.40;;